Time;durP1;ratioP1;P1;durP2;ratioP2;P2;SDS_P1;SDS_P2;PMS_P1;PMS_P2;Temp;Humidity;BMP_temperature;BMP_pressure;BME280_temperature;BME280_humidity;BME280_pressure;Samples;Min_cycle;Max_cycle;Signal;HPM_P1;HPM_P2
2022/10/27 00:02:43;;;;;;;9.83;7.03;;;13.50;99.90;;;;;;6298613;28;20481;-66
2022/10/27 00:05:47;;;;;;;6.83;6.17;;;13.40;99.90;;;;;;6298349;28;20622;-66
2022/10/27 00:08:52;;;;;;;7.90;6.80;;;13.40;99.90;;;;;;6299463;28;20480;-66
2022/10/27 00:11:56;;;;;;;8.10;6.73;;;13.40;99.90;;;;;;6302850;28;20480;-66
2022/10/27 00:14:59;;;;;;;9.47;6.93;;;13.40;99.90;;;;;;6299576;28;20470;-66
2022/10/27 00:18:08;;;;;;;7.60;6.50;;;13.30;99.90;;;;;;6293581;28;20488;-66
2022/10/27 00:21:13;;;;;;;8.50;6.53;;;13.20;99.90;;;;;;6307877;28;20473;-66
2022/10/27 00:24:18;;;;;;;6.70;6.03;;;13.20;99.90;;;;;;6303014;28;20450;-66
2022/10/27 00:27:21;;;;;;;6.67;5.97;;;13.20;99.90;;;;;;6299281;28;20473;-66
2022/10/27 00:30:24;;;;;;;7.03;6.43;;;13.10;99.90;;;;;;6299560;28;20587;-65
2022/10/27 00:33:28;;;;;;;8.53;6.47;;;13.10;99.90;;;;;;6299160;28;20522;-66
2022/10/27 00:36:31;;;;;;;7.03;6.30;;;13.10;99.90;;;;;;6299123;28;20438;-66
2022/10/27 00:39:36;;;;;;;6.20;5.70;;;13.10;99.90;;;;;;6298901;28;20457;-65
2022/10/27 00:42:39;;;;;;;9.47;5.53;;;13.10;99.90;;;;;;6299007;28;20473;-65
2022/10/27 00:45:42;;;;;;;7.10;6.20;;;13.00;99.90;;;;;;6298969;28;20469;-66
2022/10/27 00:48:46;;;;;;;7.03;6.33;;;13.00;99.90;;;;;;6299357;28;20469;-65
2022/10/27 00:51:53;;;;;;;8.33;5.17;;;13.00;99.90;;;;;;6293572;28;20979;-65
2022/10/27 00:55:02;;;;;;;6.77;5.87;;;12.90;99.90;;;;;;6309979;28;20465;-65
2022/10/27 00:58:09;;;;;;;7.17;6.27;;;12.90;99.90;;;;;;6308546;28;20969;-65
2022/10/27 01:01:12;;;;;;;5.67;5.20;;;12.90;99.90;;;;;;6302245;28;20530;-65
2022/10/27 01:04:25;;;;;;;7.03;5.83;;;12.90;99.90;;;;;;6298536;28;20594;-65
2022/10/27 01:07:29;;;;;;;6.63;5.93;;;12.80;99.90;;;;;;6298778;28;20481;-65
2022/10/27 01:10:34;;;;;;;5.50;5.10;;;12.80;99.90;;;;;;6302319;28;20469;-65
2022/10/27 01:13:38;;;;;;;9.57;5.30;;;12.80;99.90;;;;;;6303350;28;20539;-65
2022/10/27 01:16:50;;;;;;;5.83;5.27;;;12.80;99.90;;;;;;6303026;28;20481;-65
2022/10/27 01:20:31;;;;;;;6.80;5.53;;;12.80;99.90;;;;;;6303094;28;20470;-65
2022/10/27 01:23:51;;;;;;;7.17;5.30;;;12.80;99.90;;;;;;6292761;28;20782;-66
2022/10/27 01:26:59;;;;;;;5.97;5.47;;;12.70;99.90;;;;;;6303174;28;20492;-65
2022/10/27 01:30:05;;;;;;;6.80;5.87;;;12.70;99.90;;;;;;6303067;28;20476;-65
2022/10/27 01:33:14;;;;;;;6.77;4.50;;;12.70;99.90;;;;;;6303208;28;20473;-65
2022/10/27 01:36:24;;;;;;;7.10;4.60;;;12.70;99.90;;;;;;6303762;28;20465;-65
2022/10/27 01:39:30;;;;;;;8.17;4.90;;;12.70;99.90;;;;;;6303203;28;20453;-65
2022/10/27 01:42:40;;;;;;;7.33;5.67;;;12.70;99.90;;;;;;6302465;28;20968;-65
2022/10/27 01:45:44;;;;;;;6.83;5.70;;;12.70;99.90;;;;;;6302348;28;20465;-65
2022/10/27 01:48:49;;;;;;;6.13;5.53;;;12.70;99.90;;;;;;6302228;28;20473;-65
2022/10/27 01:51:53;;;;;;;6.17;4.90;;;12.60;99.90;;;;;;6302634;28;20472;-65
2022/10/27 01:54:57;;;;;;;6.87;6.13;;;12.50;99.90;;;;;;6297855;28;20473;-65
2022/10/27 01:58:21;;;;;;;5.27;4.80;;;12.50;99.90;;;;;;6302290;28;20480;-65
2022/10/27 02:01:40;;;;;;;5.60;5.10;;;12.50;99.90;;;;;;6303852;28;20977;-65
2022/10/27 02:04:50;;;;;;;6.77;5.80;;;12.50;99.90;;;;;;6302550;28;20489;-65
2022/10/27 02:07:59;;;;;;;5.57;5.07;;;12.50;99.90;;;;;;6302114;28;20488;-66
2022/10/27 02:11:05;;;;;;;8.10;5.33;;;12.50;99.90;;;;;;6301705;28;20469;-66
2022/10/27 02:14:10;;;;;;;9.13;5.53;;;12.50;99.90;;;;;;6302050;28;20458;-65
2022/10/27 02:17:14;;;;;;;7.23;5.10;;;12.50;99.90;;;;;;6301471;28;20530;-66
2022/10/27 02:20:23;;;;;;;6.60;5.50;;;12.50;99.90;;;;;;6300490;28;20484;-66
2022/10/27 02:23:27;;;;;;;7.47;5.40;;;12.50;99.90;;;;;;6301690;28;20508;-65
2022/10/27 02:26:37;;;;;;;5.97;5.30;;;12.50;99.90;;;;;;6303961;28;20488;-66
2022/10/27 02:29:44;;;;;;;7.50;5.20;;;12.50;99.90;;;;;;6312133;28;20477;-65
2022/10/27 02:32:47;;;;;;;5.53;5.03;;;12.50;99.90;;;;;;6301713;28;20469;-66
2022/10/27 02:35:54;;;;;;;5.67;4.30;;;12.50;99.90;;;;;;6301136;28;20469;-67
2022/10/27 02:38:57;;;;;;;10.23;5.00;;;12.40;99.90;;;;;;6301015;28;20974;-66
2022/10/27 02:42:01;;;;;;;5.00;4.50;;;12.40;99.90;;;;;;6301282;28;20984;-66
2022/10/27 02:45:04;;;;;;;4.50;4.10;;;12.40;99.90;;;;;;6301014;28;20941;-66
2022/10/27 02:48:07;;;;;;;11.03;4.67;;;12.40;99.90;;;;;;6300782;28;20502;-66
2022/10/27 02:51:12;;;;;;;5.40;4.23;;;12.40;99.90;;;;;;6300864;28;20480;-66
2022/10/27 02:54:15;;;;;;;11.27;5.00;;;12.40;99.90;;;;;;6301316;28;20469;-65
2022/10/27 02:57:19;;;;;;;5.47;4.30;;;12.30;99.90;;;;;;6291289;28;20438;-65
2022/10/27 03:00:22;;;;;;;5.00;4.47;;;12.30;99.90;;;;;;6300546;28;20532;-64
2022/10/27 03:03:25;;;;;;;7.90;4.10;;;12.30;99.90;;;;;;6300828;28;20543;-64
2022/10/27 03:06:30;;;;;;;4.40;4.00;;;12.20;99.90;;;;;;6300967;28;20453;-65
2022/10/27 03:09:33;;;;;;;6.00;4.00;;;12.20;99.90;;;;;;6300252;28;20523;-64
2022/10/27 03:12:36;;;;;;;4.57;4.13;;;12.10;99.90;;;;;;6301021;28;20523;-64
2022/10/27 03:15:39;;;;;;;5.67;4.03;;;12.10;99.90;;;;;;6300948;28;20474;-65
2022/10/27 03:18:42;;;;;;;4.90;4.50;;;12.20;99.90;;;;;;6300709;28;20530;-65
2022/10/27 03:21:47;;;;;;;4.30;3.90;;;12.20;99.90;;;;;;6300660;28;20465;-64
2022/10/27 03:24:50;;;;;;;4.97;4.57;;;12.20;99.90;;;;;;6300298;28;20488;-65
2022/10/27 03:27:53;;;;;;;5.03;4.60;;;12.20;99.90;;;;;;6300048;28;20492;-64
2022/10/27 03:30:56;;;;;;;6.70;5.03;;;12.20;99.90;;;;;;6299881;28;20469;-64
2022/10/27 03:33:59;;;;;;;5.93;4.20;;;12.20;99.90;;;;;;6300014;28;20469;-64
2022/10/27 03:37:04;;;;;;;4.37;3.97;;;12.20;99.90;;;;;;6299878;28;20469;-64
2022/10/27 03:40:08;;;;;;;6.13;3.80;;;12.20;99.90;;;;;;6300152;28;20491;-65
2022/10/27 03:43:12;;;;;;;8.20;4.00;;;12.10;99.90;;;;;;6299950;28;21077;-65
2022/10/27 03:46:15;;;;;;;4.33;3.67;;;12.20;99.90;;;;;;6299842;28;20492;-64
2022/10/27 03:49:18;;;;;;;11.23;4.33;;;12.20;99.90;;;;;;6299947;28;20546;-64
2022/10/27 03:52:22;;;;;;;4.57;4.07;;;12.10;99.90;;;;;;6300673;28;20551;-64
2022/10/27 03:55:26;;;;;;;4.97;3.67;;;12.20;99.90;;;;;;6299577;28;20476;-65
2022/10/27 03:58:29;;;;;;;4.90;3.50;;;12.20;99.90;;;;;;6300093;28;20466;-64
2022/10/27 04:01:34;;;;;;;5.47;3.70;;;12.20;99.90;;;;;;6299572;28;20469;-65
2022/10/27 04:04:37;;;;;;;4.90;3.03;;;12.30;99.90;;;;;;6299380;28;20485;-64
2022/10/27 04:07:42;;;;;;;3.93;3.63;;;12.30;99.90;;;;;;6299675;28;20562;-65
2022/10/27 04:10:49;;;;;;;7.53;3.67;;;12.30;99.90;;;;;;6299571;28;20496;-66
2022/10/27 04:13:52;;;;;;;5.50;2.87;;;12.30;99.90;;;;;;6299748;28;20570;-64
2022/10/27 04:16:55;;;;;;;5.33;3.50;;;12.40;99.90;;;;;;6299640;28;20461;-64
2022/10/27 04:19:58;;;;;;;3.70;3.23;;;12.40;99.90;;;;;;6299480;28;20969;-64
2022/10/27 04:23:03;;;;;;;4.43;3.80;;;12.50;99.90;;;;;;6299233;28;20484;-64
2022/10/27 04:26:06;;;;;;;4.33;3.20;;;12.40;99.90;;;;;;6299400;28;21000;-66
2022/10/27 04:29:09;;;;;;;3.40;2.70;;;12.40;99.90;;;;;;6299062;28;20469;-64
2022/10/27 04:32:12;;;;;;;4.13;3.53;;;12.50;99.90;;;;;;6299363;28;20476;-64
2022/10/27 04:35:15;;;;;;;4.77;3.87;;;12.50;99.90;;;;;;6303791;28;20945;-65
2022/10/27 04:38:20;;;;;;;7.20;5.53;;;12.50;99.90;;;;;;6307571;28;20473;-64
2022/10/27 04:41:23;;;;;;;7.43;5.87;;;12.60;99.90;;;;;;6299281;28;20465;-64
2022/10/27 04:44:26;;;;;;;4.90;4.60;;;12.50;99.90;;;;;;6301672;28;20984;-64
2022/10/27 04:47:29;;;;;;;5.83;4.77;;;12.60;99.90;;;;;;6305139;28;20873;-64
2022/10/27 04:50:32;;;;;;;4.20;3.77;;;12.50;99.90;;;;;;6305881;28;20976;-64
2022/10/27 04:53:37;;;;;;;4.73;4.20;;;12.50;99.90;;;;;;6305068;28;20957;-64
2022/10/27 04:56:40;;;;;;;3.70;3.27;;;12.40;99.90;;;;;;6303876;28;20534;-64
2022/10/27 04:59:43;;;;;;;3.83;3.53;;;12.30;99.90;;;;;;6303670;28;20991;-64
2022/10/27 05:02:51;;;;;;;3.50;3.13;;;12.30;99.90;;;;;;6303253;28;20852;-64
2022/10/27 05:05:55;;;;;;;3.60;3.30;;;12.30;99.90;;;;;;6304995;28;20493;-64
2022/10/27 05:08:59;;;;;;;5.20;3.87;;;12.30;99.90;;;;;;6302919;28;20546;-64
2022/10/27 05:12:03;;;;;;;10.57;3.27;;;12.20;99.90;;;;;;6303118;28;20481;-64
2022/10/27 05:15:07;;;;;;;3.73;3.40;;;12.20;99.90;;;;;;6303194;28;20515;-64
2022/10/27 05:18:10;;;;;;;4.40;4.00;;;12.20;99.90;;;;;;6303061;28;20477;-64
2022/10/27 05:21:13;;;;;;;4.63;4.23;;;12.20;99.90;;;;;;6303373;28;20493;-64
2022/10/27 05:24:17;;;;;;;6.13;4.47;;;12.10;99.90;;;;;;6304112;28;20511;-64
2022/10/27 05:27:20;;;;;;;6.77;5.83;;;12.10;99.90;;;;;;6302801;28;20465;-64
2022/10/27 05:30:23;;;;;;;8.73;5.93;;;12.00;99.90;;;;;;6302133;28;20924;-65
2022/10/27 05:33:27;;;;;;;6.53;5.77;;;12.00;99.90;;;;;;6301816;28;20464;-63
2022/10/27 05:36:30;;;;;;;7.67;6.53;;;11.90;99.90;;;;;;6303166;28;20514;-64
2022/10/27 05:39:35;;;;;;;7.43;5.50;;;12.00;99.90;;;;;;6304515;28;20457;-64
2022/10/27 05:42:38;;;;;;;9.30;7.10;;;11.90;99.90;;;;;;6304807;28;20951;-64
2022/10/27 05:45:41;;;;;;;7.77;5.57;;;12.00;99.90;;;;;;6302598;28;20461;-63
2022/10/27 05:48:44;;;;;;;7.40;6.70;;;12.00;99.90;;;;;;6303048;28;20910;-63
2022/10/27 05:51:49;;;;;;;15.50;7.87;;;12.00;99.90;;;;;;6301936;28;20468;-64
2022/10/27 05:54:54;;;;;;;13.73;7.20;;;12.00;99.90;;;;;;6301692;28;20476;-64
2022/10/27 05:57:59;;;;;;;11.20;8.20;;;12.00;99.90;;;;;;6301797;28;21156;-64
2022/10/27 06:01:02;;;;;;;12.17;7.77;;;12.00;99.90;;;;;;6303011;28;20484;-64
2022/10/27 06:04:05;;;;;;;15.00;8.87;;;12.00;99.90;;;;;;6301619;28;20482;-64
2022/10/27 06:07:08;;;;;;;11.83;6.53;;;12.00;99.90;;;;;;6296103;28;20480;-64
2022/10/27 06:10:13;;;;;;;8.87;6.80;;;11.90;99.90;;;;;;6300579;28;20918;-64
2022/10/27 06:13:17;;;;;;;9.70;7.33;;;12.00;99.90;;;;;;6301449;28;20469;-65
2022/10/27 06:16:21;;;;;;;9.37;6.30;;;12.10;99.90;;;;;;6300710;28;20477;-65
2022/10/27 06:19:24;;;;;;;10.03;5.93;;;12.10;99.90;;;;;;6300738;28;20546;-65
2022/10/27 06:22:27;;;;;;;9.43;5.27;;;12.20;99.90;;;;;;6305300;28;20470;-64
2022/10/27 06:25:32;;;;;;;7.20;4.67;;;12.20;99.90;;;;;;6316149;28;20465;-64
2022/10/27 06:28:35;;;;;;;5.73;4.90;;;12.30;99.90;;;;;;6311467;28;21185;-65
2022/10/27 06:31:40;;;;;;;7.97;5.77;;;12.40;99.90;;;;;;6308639;28;20469;-64
2022/10/27 06:34:43;;;;;;;5.80;5.30;;;12.30;99.90;;;;;;6301843;28;20469;-64
2022/10/27 06:37:47;;;;;;;7.00;5.80;;;12.40;99.90;;;;;;6301884;28;20481;-65
2022/10/27 06:40:51;;;;;;;7.17;5.83;;;12.40;99.90;;;;;;6301559;28;20474;-64
2022/10/27 06:43:54;;;;;;;7.30;6.60;;;12.50;99.90;;;;;;6301150;28;20522;-63
2022/10/27 06:46:58;;;;;;;10.27;5.90;;;12.60;99.90;;;;;;6302951;28;20481;-64
2022/10/27 06:50:01;;;;;;;7.93;5.30;;;12.70;99.90;;;;;;6303150;28;21023;-64
2022/10/27 06:53:04;;;;;;;7.13;5.30;;;12.70;99.90;;;;;;6301331;28;20491;-65
2022/10/27 06:56:09;;;;;;;8.00;5.93;;;12.80;99.90;;;;;;6294079;28;20844;-64
2022/10/27 06:59:12;;;;;;;10.83;5.87;;;12.90;99.90;;;;;;6282156;28;20765;-64
2022/10/27 07:02:15;;;;;;;7.53;5.30;;;13.00;99.90;;;;;;6298269;28;20465;-64
2022/10/27 07:05:19;;;;;;;9.30;6.10;;;13.10;99.90;;;;;;6299975;28;20476;-64
2022/10/27 07:08:22;;;;;;;6.73;5.67;;;13.20;99.90;;;;;;6299346;28;20550;-65
2022/10/27 07:11:27;;;;;;;8.20;6.00;;;13.30;99.90;;;;;;6301634;28;20843;-64
2022/10/27 07:14:30;;;;;;;6.97;6.27;;;13.40;99.90;;;;;;6306562;28;20470;-65
2022/10/27 07:17:33;;;;;;;9.20;5.83;;;13.50;99.90;;;;;;6305201;28;20469;-64
2022/10/27 07:20:38;;;;;;;8.93;6.23;;;13.60;99.90;;;;;;6305324;28;20469;-65
2022/10/27 07:23:41;;;;;;;7.93;6.50;;;13.70;99.90;;;;;;6305216;28;20481;-65
2022/10/27 07:26:46;;;;;;;7.73;7.00;;;13.80;99.90;;;;;;6301615;28;20857;-64
2022/10/27 07:29:49;;;;;;;7.77;7.07;;;13.90;99.90;;;;;;6301504;28;20480;-64
2022/10/27 07:32:58;;;;;;;7.17;6.30;;;13.90;99.90;;;;;;6298625;28;20548;-64
2022/10/27 07:36:01;;;;;;;7.60;6.90;;;14.10;99.90;;;;;;6305859;28;20469;-64
2022/10/27 07:39:04;;;;;;;9.17;7.83;;;14.20;99.90;;;;;;6307868;28;20477;-64
2022/10/27 07:42:09;;;;;;;21.03;9.73;;;14.20;99.90;;;;;;6304286;28;20472;-64
2022/10/27 07:57:11;;;;;;;14.13;9.23;;;14.20;99.90;;;;;;6302850;28;20905;-62
2022/10/27 08:00:16;;;;;;;9.80;7.73;;;14.80;99.90;;;;;;6271531;28;20946;-61
2022/10/27 08:03:22;;;;;;;10.83;9.80;;;15.00;99.90;;;;;;6263903;28;20536;-62
2022/10/27 08:06:25;;;;;;;10.70;9.57;;;15.10;99.90;;;;;;6263978;28;20470;-62
2022/10/27 08:09:28;;;;;;;9.20;8.17;;;15.30;99.90;;;;;;6261804;28;20938;-61
2022/10/27 08:12:33;;;;;;;12.60;9.03;;;15.40;99.90;;;;;;6246239;28;20474;-61
2022/10/27 08:15:39;;;;;;;10.60;8.80;;;15.50;99.90;;;;;;6246513;28;20486;-62
2022/10/27 08:18:43;;;;;;;13.30;7.93;;;15.60;99.90;;;;;;6246888;28;20487;-61
2022/10/27 08:21:46;;;;;;;8.93;7.50;;;15.80;99.90;;;;;;6267536;28;20466;-61
2022/10/27 08:24:50;;;;;;;11.17;8.93;;;16.00;99.90;;;;;;6270542;28;20470;-61
2022/10/27 08:27:54;;;;;;;9.23;8.30;;;16.20;99.90;;;;;;6270822;28;20478;-61
2022/10/27 08:30:58;;;;;;;24.63;8.90;;;16.50;99.90;;;;;;6270292;28;20478;-62
2022/10/27 08:34:01;;;;;;;9.50;8.50;;;16.70;99.90;;;;;;6270169;28;20961;-61
2022/10/27 08:37:05;;;;;;;12.70;7.57;;;17.00;99.90;;;;;;6269340;28;20470;-61
2022/10/27 08:40:10;;;;;;;8.60;7.70;;;17.50;99.90;;;;;;6269733;28;20977;-61
2022/10/27 08:43:42;;;;;;;14.47;8.47;;;19.60;99.90;;;;;;6269843;28;20346;-62
2022/10/27 08:46:49;;;;;;;11.40;8.73;;;23.90;99.90;;;;;;6269822;28;20597;-62
2022/10/27 08:49:57;;;;;;;9.50;5.97;;;28.20;87.60;;;;;;6269745;28;20227;-62
2022/10/27 08:53:04;;;;;;;7.13;6.30;;;31.50;65.50;;;;;;6269641;28;20227;-62
2022/10/27 08:56:10;;;;;;;5.63;5.07;;;34.20;53.40;;;;;;6245980;28;20243;-63
2022/10/27 08:59:19;;;;;;;6.47;5.25;;;36.30;45.00;;;;;;6244244;28;20231;-63
2022/10/27 09:02:47;;;;;;;5.57;5.07;;;38.10;38.70;;;;;;6269230;28;20215;-63
2022/10/27 09:05:59;;;;;;;5.97;4.43;;;39.50;35.00;;;;;;6268467;28;20325;-64
2022/10/27 09:09:11;;;;;;;5.50;5.00;;;40.80;30.90;;;;;;6252726;28;20238;-63
2022/10/27 09:12:24;;;;;;;5.93;5.45;;;39.20;30.50;;;;;;6261568;28;20520;-63
2022/10/27 09:15:44;;;;;;;8.38;5.20;;;36.40;33.10;;;;;;6278173;28;20232;-63
2022/10/27 09:18:51;;;;;;;5.47;4.88;;;33.70;36.70;;;;;;6276386;28;20615;-63
2022/10/27 09:21:54;;;;;;;8.43;5.18;;;31.60;40.10;;;;;;6277203;28;20231;-63
2022/10/27 09:25:01;;;;;;;6.15;4.47;;;30.20;44.10;;;;;;6277389;28;20234;-63
2022/10/27 09:28:06;;;;;;;7.03;4.65;;;31.50;43.20;;;;;;6277397;28;20242;-63
2022/10/27 09:31:14;;;;;;;5.13;4.65;;;34.80;39.20;;;;;;6277105;28;20245;-63
2022/10/27 09:34:21;;;;;;;4.45;3.97;;;38.00;33.80;;;;;;6277310;28;20281;-63
2022/10/27 09:37:28;;;;;;;5.20;4.63;;;40.70;29.80;;;;;;6280028;28;20248;-64
2022/10/27 09:40:33;;;;;;;4.75;4.25;;;42.20;27.40;;;;;;6277573;28;20235;-62
2022/10/27 09:43:37;;;;;;;4.35;3.95;;;43.30;26.10;;;;;;6277081;28;20219;-62
2022/10/27 09:46:42;;;;;;;6.45;3.80;;;44.80;25.00;;;;;;6275454;28;20295;-62
2022/10/27 09:49:47;;;;;;;5.25;4.80;;;46.00;23.20;;;;;;6252422;28;20243;-62
2022/10/27 09:52:51;;;;;;;4.68;4.22;;;46.40;22.50;;;;;;6252253;28;20242;-62
2022/10/27 09:55:54;;;;;;;6.22;3.50;;;46.10;21.80;;;;;;6268500;28;20675;-62
2022/10/27 09:59:01;;;;;;;5.50;3.88;;;46.10;21.90;;;;;;6277664;28;20686;-62
2022/10/27 10:02:22;;;;;;;6.13;4.68;;;46.40;22.00;;;;;;6278521;28;20226;-62
2022/10/27 10:05:27;;;;;;;7.00;5.80;;;47.20;21.40;;;;;;6278225;28;20215;-64
2022/10/27 10:08:32;;;;;;;7.32;5.35;;;46.90;21.00;;;;;;6276111;28;20209;-63
2022/10/27 10:11:35;;;;;;;6.53;5.18;;;46.70;21.80;;;;;;6266247;28;20200;-65
2022/10/27 10:14:39;;;;;;;4.13;3.70;;;48.00;20.60;;;;;;6268988;28;20223;-62
2022/10/27 10:17:52;;;;;;;4.20;3.10;;;48.90;19.50;;;;;;6276468;28;20241;-65
2022/10/27 10:20:58;;;;;;;4.95;4.00;;;50.10;18.70;;;;;;6263799;28;20232;-65
2022/10/27 10:24:01;;;;;;;5.45;3.92;;;50.20;18.30;;;;;;6263549;28;20605;-64
2022/10/27 10:27:06;;;;;;;4.90;3.67;;;50.60;18.30;;;;;;6262853;28;20289;-64
2022/10/27 10:30:18;;;;;;;7.38;4.30;;;50.80;18.20;;;;;;6276734;28;20241;-67
2022/10/27 10:33:27;;;;;;;4.60;4.10;;;51.50;17.70;;;;;;6275319;28;20650;-64
2022/10/27 10:36:35;;;;;;;6.72;4.28;;;52.60;17.20;;;;;;6274943;28;20235;-64
2022/10/27 10:39:38;;;;;;;4.32;3.83;;;53.40;16.70;;;;;;6275540;28;20223;-63
2022/10/27 10:42:44;;;;;;;5.72;3.55;;;53.90;16.10;;;;;;6271947;28;20222;-63
2022/10/27 10:45:52;;;;;;;4.43;3.45;;;52.90;16.00;;;;;;6275943;28;20234;-63
2022/10/27 10:48:58;;;;;;;5.22;2.60;;;52.50;16.40;;;;;;6264548;28;20329;-62
2022/10/27 10:52:05;;;;;;;4.68;3.15;;;52.90;16.50;;;;;;6259502;28;20227;-62
2022/10/27 10:55:18;;;;;;;3.40;3.10;;;53.80;15.80;;;;;;6273014;28;20827;-67
2022/10/27 10:58:24;;;;;;;4.30;3.20;;;53.60;15.90;;;;;;6276401;28;20564;-67
2022/10/27 11:01:40;;;;;;;4.82;3.72;;;53.90;15.70;;;;;;6264028;28;20219;-67
2022/10/27 11:04:46;;;;;;;6.82;3.22;;;54.10;15.20;;;;;;6250839;28;20262;-67
2022/10/27 11:07:51;;;;;;;5.10;2.97;;;54.00;15.20;;;;;;6250385;28;20238;-63
2022/10/27 11:10:56;;;;;;;3.72;3.30;;;54.40;15.20;;;;;;6253234;28;20234;-61
2022/10/27 11:14:01;;;;;;;4.30;3.35;;;54.70;15.10;;;;;;6271308;28;20244;-63
2022/10/27 11:17:06;;;;;;;3.80;3.10;;;54.20;15.10;;;;;;6262203;28;20226;-62
2022/10/27 11:20:19;;;;;;;3.50;3.20;;;54.40;15.10;;;;;;6260845;28;20227;-63
2022/10/27 11:23:28;;;;;;;4.55;4.00;;;54.20;15.10;;;;;;6259989;28;20212;-63
2022/10/27 11:26:35;;;;;;;7.93;3.45;;;53.70;15.40;;;;;;6262991;28;20536;-63
2022/10/27 11:29:45;;;;;;;7.03;3.30;;;53.40;15.50;;;;;;6275077;28;20234;-63
2022/10/27 11:32:58;;;;;;;4.30;3.17;;;53.50;15.60;;;;;;6255017;28;20577;-63
2022/10/27 11:36:11;;;;;;;3.65;2.67;;;53.90;15.30;;;;;;6251725;28;20553;-63
2022/10/27 11:39:21;;;;;;;5.95;3.45;;;51.10;16.40;;;;;;6259159;28;20302;-63
2022/10/27 11:42:34;;;;;;;4.35;3.20;;;50.00;17.30;;;;;;6269241;28;20665;-64
2022/10/27 11:45:43;;;;;;;4.10;3.20;;;49.70;17.20;;;;;;6279534;28;20538;-62
2022/10/27 11:48:54;;;;;;;4.38;2.58;;;50.70;16.90;;;;;;6278438;28;20238;-65
2022/10/27 11:52:04;;;;;;;3.35;2.85;;;51.20;15.80;;;;;;6274025;28;20722;-65
2022/10/27 11:55:09;;;;;;;3.13;2.55;;;47.70;18.00;;;;;;6263697;28;20662;-65
2022/10/27 11:58:25;;;;;;;4.32;3.08;;;49.10;17.80;;;;;;6250872;28;20243;-67
2022/10/27 12:01:44;;;;;;;3.55;2.40;;;51.00;16.60;;;;;;6250344;28;20671;-63
2022/10/27 12:04:52;;;;;;;4.20;2.38;;;51.90;16.10;;;;;;6258300;28;20238;-65
2022/10/27 12:08:08;;;;;;;3.95;2.85;;;52.80;15.60;;;;;;6260972;28;20302;-63
2022/10/27 12:11:37;;;;;;;3.35;2.10;;;53.40;15.00;;;;;;6260509;28;20322;-62
2022/10/27 12:14:53;;;;;;;2.50;2.30;;;53.00;14.50;;;;;;6261526;28;20231;-64
2022/10/27 12:18:01;;;;;;;2.13;1.88;;;51.70;15.30;;;;;;6260105;28;20258;-66
2022/10/27 12:21:17;;;;;;;5.03;2.15;;;52.10;15.50;;;;;;6259781;28;20242;-67
2022/10/27 12:24:27;;;;;;;3.08;2.53;;;51.40;15.80;;;;;;6261841;28;20682;-67
2022/10/27 12:27:35;;;;;;;2.60;2.15;;;48.80;17.10;;;;;;6273893;28;20226;-67
2022/10/27 12:30:42;;;;;;;2.17;1.83;;;48.80;17.00;;;;;;6274089;28;20226;-64
2022/10/27 12:33:50;;;;;;;4.95;2.00;;;48.70;16.50;;;;;;6274119;28;20230;-65
2022/10/27 12:37:00;;;;;;;2.92;1.75;;;48.80;16.50;;;;;;6273080;28;20239;-64
2022/10/27 12:40:12;;;;;;;4.10;2.15;;;49.50;16.20;;;;;;6273795;28;20240;-62
2022/10/27 12:43:23;;;;;;;2.47;2.28;;;48.60;16.50;;;;;;6276542;28;20262;-64
2022/10/27 12:46:52;;;;;;;2.15;1.77;;;49.30;16.30;;;;;;6278007;28;20235;-65
2022/10/27 12:50:04;;;;;;;3.40;1.98;;;49.30;16.60;;;;;;6277660;28;20296;-65
2022/10/27 12:53:22;;;;;;;2.60;2.20;;;48.80;16.50;;;;;;6277861;28;20234;-67
2022/10/27 12:56:42;;;;;;;3.67;2.00;;;48.80;16.10;;;;;;6258086;28;20250;-65
2022/10/27 12:59:55;;;;;;;3.65;1.85;;;44.70;18.40;;;;;;6260204;28;20592;-64
2022/10/27 13:03:28;;;;;;;3.45;2.13;;;44.70;18.90;;;;;;6254113;28;20223;-62
2022/10/27 13:07:01;;;;;;;2.97;1.95;;;46.10;18.10;;;;;;6250777;28;20235;-62
2022/10/27 13:10:16;;;;;;;2.10;1.65;;;46.10;17.90;;;;;;6251312;28;20234;-62
2022/10/27 13:13:37;;;;;;;3.58;1.90;;;45.70;18.40;;;;;;6276825;28;20582;-62
2022/10/27 13:16:52;;;;;;;3.97;1.60;;;45.00;18.90;;;;;;6277800;28;20608;-66
2022/10/27 13:20:01;;;;;;;3.25;2.05;;;45.30;18.60;;;;;;6277267;28;20237;-65
2022/10/27 13:23:18;;;;;;;4.28;1.98;;;44.90;18.70;;;;;;6277759;28;20572;-65
2022/10/27 13:26:29;;;;;;;2.00;1.85;;;44.60;19.00;;;;;;6277599;28;20240;-65
2022/10/27 13:29:42;;;;;;;4.20;2.05;;;43.80;19.70;;;;;;6277880;28;20612;-65
2022/10/27 13:32:53;;;;;;;2.58;2.38;;;44.50;19.40;;;;;;6278281;28;20224;-66
2022/10/27 13:36:16;;;;;;;2.35;2.15;;;43.70;19.80;;;;;;6277637;28;20246;-63
2022/10/27 13:39:41;;;;;;;2.58;2.38;;;44.10;19.70;;;;;;6277456;28;20322;-63
2022/10/27 13:42:44;;;;;;;3.25;2.00;;;43.10;20.40;;;;;;6277186;28;20243;-65
2022/10/27 13:45:50;;;;;;;4.40;2.05;;;41.70;21.40;;;;;;6271228;28;20240;-65
2022/10/27 13:48:53;;;;;;;4.53;2.58;;;39.60;23.00;;;;;;6251349;28;20228;-65
2022/10/27 13:52:11;;;;;;;4.90;2.72;;;37.30;24.80;;;;;;6250568;28;20242;-65
2022/10/27 13:55:34;;;;;;;3.33;2.40;;;34.80;27.40;;;;;;6251696;28;20682;-66
2022/10/27 13:58:55;;;;;;;5.22;2.47;;;33.00;29.50;;;;;;6251158;28;20236;-65
2022/10/27 14:02:03;;;;;;;2.58;2.38;;;31.60;31.70;;;;;;6251754;28;20231;-66
2022/10/27 14:05:18;;;;;;;4.50;2.20;;;30.20;34.30;;;;;;6251438;28;20240;-65
2022/10/27 14:08:25;;;;;;;8.03;2.73;;;29.00;36.50;;;;;;6251663;28;20212;-65
2022/10/27 14:11:30;;;;;;;3.73;2.03;;;28.00;38.50;;;;;;6251532;28;20216;-61
2022/10/27 14:14:36;;;;;;;5.00;2.53;;;27.40;39.90;;;;;;6251153;28;20516;-62
2022/10/27 14:17:42;;;;;;;5.53;2.20;;;26.80;41.90;;;;;;6251315;28;20228;-61
2022/10/27 14:20:46;;;;;;;5.17;2.30;;;26.20;42.60;;;;;;6251150;28;20234;-61
2022/10/27 14:23:50;;;;;;;2.83;2.10;;;25.50;44.10;;;;;;6251146;28;20298;-61
2022/10/27 14:27:01;;;;;;;5.10;2.77;;;25.30;44.80;;;;;;6252364;28;20238;-61
2022/10/27 14:30:06;;;;;;;3.20;2.20;;;24.90;45.90;;;;;;6251406;28;20224;-61
2022/10/27 14:33:19;;;;;;;4.27;2.57;;;24.70;46.80;;;;;;6251339;28;20223;-62
2022/10/27 14:36:27;;;;;;;3.20;2.57;;;24.50;47.10;;;;;;6251295;28;20246;-62
2022/10/27 14:39:34;;;;;;;3.13;2.83;;;24.30;47.90;;;;;;6261819;28;20254;-61
2022/10/27 14:42:37;;;;;;;4.43;2.73;;;24.10;48.70;;;;;;6275591;28;20701;-61
2022/10/27 14:45:41;;;;;;;4.00;2.40;;;24.00;49.40;;;;;;6275322;28;20235;-62
2022/10/27 14:48:53;;;;;;;2.87;2.57;;;23.70;50.20;;;;;;6276451;28;20313;-61
2022/10/27 14:51:58;;;;;;;3.80;2.20;;;23.60;51.00;;;;;;6276170;28;20235;-62
2022/10/27 14:55:02;;;;;;;4.20;2.70;;;23.40;51.80;;;;;;6275431;28;20556;-61
2022/10/27 14:58:06;;;;;;;4.30;2.80;;;23.20;52.50;;;;;;6274986;28;20236;-61
2022/10/27 15:01:19;;;;;;;4.90;2.90;;;23.10;52.90;;;;;;6275071;28;20231;-61
2022/10/27 15:04:33;;;;;;;4.77;3.83;;;23.10;53.40;;;;;;6274754;28;20480;-61
2022/10/27 15:07:37;;;;;;;5.70;2.70;;;23.10;54.00;;;;;;6274722;28;20239;-61
2022/10/27 15:10:43;;;;;;;4.97;3.80;;;23.00;55.10;;;;;;6274847;28;20246;-61
2022/10/27 15:13:47;;;;;;;3.63;2.80;;;23.00;55.00;;;;;;6274702;28;20228;-61
2022/10/27 15:16:51;;;;;;;6.10;3.60;;;22.90;55.30;;;;;;6274677;28;20246;-61
2022/10/27 15:19:58;;;;;;;4.87;3.17;;;22.90;56.00;;;;;;6274594;28;20262;-61
2022/10/27 15:23:01;;;;;;;5.13;3.90;;;22.80;56.20;;;;;;6274407;28;20247;-61
2022/10/27 15:26:05;;;;;;;10.13;3.80;;;22.70;57.10;;;;;;6274407;28;20598;-61
2022/10/27 15:29:14;;;;;;;6.93;3.97;;;22.70;57.80;;;;;;6274608;28;20285;-60
2022/10/27 15:32:22;;;;;;;3.67;3.37;;;22.60;58.40;;;;;;6275225;28;20277;-62
2022/10/27 15:35:30;;;;;;;8.10;4.30;;;22.50;58.90;;;;;;6275720;28;20311;-61
2022/10/27 15:38:33;;;;;;;9.40;4.07;;;22.40;59.60;;;;;;6272107;28;20228;-61
2022/10/27 15:41:46;;;;;;;10.10;5.10;;;22.30;60.40;;;;;;6249448;28;20212;-61
2022/10/27 15:44:50;;;;;;;17.20;5.00;;;22.20;61.40;;;;;;6249968;28;20224;-62
2022/10/27 15:47:54;;;;;;;14.43;5.07;;;22.10;62.60;;;;;;6255158;28;20223;-61
2022/10/27 15:51:01;;;;;;;24.73;5.73;;;22.00;64.00;;;;;;6257772;28;20231;-61
2022/10/27 15:54:05;;;;;;;11.57;4.27;;;21.90;65.40;;;;;;6261441;28;20234;-61
2022/10/27 15:57:30;;;;;;;6.80;4.00;;;21.80;66.60;;;;;;6263298;28;20237;-61
2022/10/27 16:00:33;;;;;;;10.73;3.83;;;21.70;67.90;;;;;;6259593;28;20232;-61
2022/10/27 16:03:40;;;;;;;8.07;4.40;;;21.60;69.20;;;;;;6255852;28;20232;-61
2022/10/27 16:06:44;;;;;;;17.27;5.20;;;21.50;70.60;;;;;;6259273;28;20243;-61
2022/10/27 16:09:48;;;;;;;9.73;4.60;;;21.40;72.20;;;;;;6256436;28;20659;-61
2022/10/27 16:12:52;;;;;;;7.20;3.50;;;21.20;73.50;;;;;;6272726;28;20545;-61
2022/10/27 16:15:55;;;;;;;6.27;4.87;;;21.10;75.00;;;;;;6249273;28;20679;-60
2022/10/27 16:18:59;;;;;;;11.07;5.60;;;21.00;76.60;;;;;;6253496;28;20340;-60
2022/10/27 16:22:04;;;;;;;6.90;4.43;;;20.80;78.30;;;;;;6258050;28;20227;-60
2022/10/27 16:25:12;;;;;;;6.60;4.53;;;20.80;80.40;;;;;;6278473;28;20231;-61